Time;durP1;ratioP1;P1;durP2;ratioP2;P2;SDS_P1;SDS_P2;PMS_P1;PMS_P2;Temp;Humidity;BMP_temperature;BMP_pressure;BME280_temperature;BME280_humidity;BME280_pressure;Samples;Min_cycle;Max_cycle;Signal;HPM_P1;HPM_P2
2021/12/07 00:01:38;;;;;;;12.20;6.20;;;0.20;73.70;;;;;;5069248;28;46526;-66
2021/12/07 00:04:04;;;;;;;11.32;6.85;;;0.30;73.80;;;;;;5073489;28;48222;-66
2021/12/07 00:06:30;;;;;;;14.18;8.43;;;0.30;73.90;;;;;;5073705;28;46410;-65
2021/12/07 00:08:57;;;;;;;24.45;11.68;;;0.30;73.90;;;;;;5075052;27;46382;-66
2021/12/07 00:11:26;;;;;;;35.50;14.20;;;0.40;74.00;;;;;;5076409;27;46289;-65
2021/12/07 00:13:53;;;;;;;27.15;14.00;;;0.40;74.00;;;;;;5079888;28;48094;-65
2021/12/07 00:16:19;;;;;;;17.58;9.60;;;0.40;74.00;;;;;;5066034;27;45909;-66
2021/12/07 00:18:46;;;;;;;14.63;8.00;;;0.50;74.00;;;;;;5069838;28;46417;-67
2021/12/07 00:21:14;;;;;;;20.58;7.38;;;0.50;74.00;;;;;;5071562;27;46433;-66
2021/12/07 00:23:40;;;;;;;11.13;7.00;;;0.50;73.90;;;;;;5067995;28;47902;-66
2021/12/07 00:26:06;;;;;;;10.30;6.38;;;0.50;74.00;;;;;;5073050;28;45997;-66
2021/12/07 00:28:32;;;;;;;9.63;5.75;;;0.50;74.10;;;;;;5071738;28;46363;-66
2021/12/07 00:31:08;;;;;;;8.40;5.90;;;0.50;74.20;;;;;;5072240;28;46295;-65
2021/12/07 00:33:43;;;;;;;7.35;5.18;;;0.50;74.30;;;;;;5074497;28;47860;-64
2021/12/07 00:36:12;;;;;;;10.82;5.07;;;0.50;74.40;;;;;;5070468;27;45927;-66
2021/12/07 00:38:38;;;;;;;7.15;4.35;;;0.50;74.40;;;;;;5068104;28;46453;-66
2021/12/07 00:41:04;;;;;;;8.55;5.07;;;0.50;74.30;;;;;;5073201;28;46587;-66
2021/12/07 00:43:32;;;;;;;8.90;5.03;;;0.50;74.30;;;;;;5073394;28;48095;-66
2021/12/07 00:46:00;;;;;;;7.85;3.75;;;0.50;74.20;;;;;;5071338;27;46396;-68
2021/12/07 00:48:27;;;;;;;6.45;3.72;;;0.60;74.20;;;;;;5071200;28;46625;-66
2021/12/07 00:50:56;;;;;;;6.05;3.95;;;0.70;73.90;;;;;;5070183;28;46353;-66
2021/12/07 00:53:23;;;;;;;7.75;5.07;;;0.70;73.60;;;;;;5073034;28;47845;-65
2021/12/07 00:55:51;;;;;;;8.00;4.43;;;0.80;73.60;;;;;;5071604;28;46545;-67
2021/12/07 00:58:22;;;;;;;12.32;4.43;;;0.90;73.40;;;;;;5075275;27;46496;-66
2021/12/07 01:00:53;;;;;;;7.80;4.65;;;1.00;73.30;;;;;;5072204;27;46602;-66
2021/12/07 01:03:19;;;;;;;7.10;4.30;;;1.10;73.10;;;;;;5068036;28;46417;-65
2021/12/07 01:05:52;;;;;;;6.47;4.07;;;1.10;72.90;;;;;;5079629;27;46373;-66
2021/12/07 01:08:50;;;;;;;7.25;4.47;;;1.20;72.90;;;;;;5072206;28;46490;-66
2021/12/07 01:24:51;;;;;;;5.60;3.45;;;1.40;72.70;;;;;;5074262;28;46785;-67
2021/12/07 01:27:19;;;;;;;4.93;3.40;;;1.40;72.70;;;;;;5070217;28;46443;-66
2021/12/07 01:29:49;;;;;;;6.15;3.30;;;1.50;72.60;;;;;;5067457;28;46314;-66
2021/12/07 01:35:44;;;;;;;4.82;2.85;;;1.60;72.30;;;;;;5055243;28;46843;-66
2021/12/07 01:43:39;;;;;;;3.43;2.20;;;1.60;72.10;;;;;;5070881;27;46528;-66
2021/12/07 01:59:34;;;;;;;4.72;2.10;;;1.50;72.30;;;;;;5071761;28;46299;-66
2021/12/07 02:02:13;;;;;;;2.33;1.90;;;1.50;72.30;;;;;;5073073;28;46380;-66
2021/12/07 02:04:39;;;;;;;3.00;1.92;;;1.50;72.30;;;;;;5072200;28;45937;-65
2021/12/07 02:07:06;;;;;;;2.55;1.70;;;1.50;72.30;;;;;;5070324;28;46442;-66
2021/12/07 02:09:36;;;;;;;4.50;2.05;;;1.50;72.10;;;;;;5072534;27;46394;-67
2021/12/07 02:12:06;;;;;;;2.22;1.50;;;1.50;72.00;;;;;;5071182;28;46364;-66
2021/12/07 02:14:32;;;;;;;3.65;2.10;;;1.50;71.90;;;;;;5073940;28;46624;-65
2021/12/07 02:17:01;;;;;;;2.78;2.00;;;1.60;71.90;;;;;;5074811;27;47808;-66
2021/12/07 02:19:27;;;;;;;3.38;2.10;;;1.60;71.90;;;;;;5064675;28;46315;-67
2021/12/07 02:21:54;;;;;;;2.70;2.20;;;1.70;71.60;;;;;;5065619;28;46352;-66
2021/12/07 02:24:20;;;;;;;3.03;2.22;;;1.80;71.40;;;;;;5068802;27;46546;-65
2021/12/07 02:26:49;;;;;;;2.90;1.90;;;1.80;71.00;;;;;;5067938;28;47794;-65
2021/12/07 02:29:16;;;;;;;4.05;1.77;;;1.80;71.20;;;;;;5067803;28;46299;-66
2021/12/07 02:31:42;;;;;;;2.58;1.98;;;1.90;71.10;;;;;;5073486;28;46393;-67
2021/12/07 02:34:09;;;;;;;2.97;1.95;;;1.90;71.10;;;;;;5071162;28;46391;-67
2021/12/07 02:36:36;;;;;;;3.50;2.28;;;1.90;71.10;;;;;;5079323;27;46376;-66
2021/12/07 02:39:04;;;;;;;3.47;2.20;;;1.80;71.70;;;;;;5079711;27;46531;-65
2021/12/07 02:41:30;;;;;;;3.58;2.40;;;1.80;72.20;;;;;;5070295;27;46564;-66
2021/12/07 02:43:56;;;;;;;2.60;1.77;;;1.80;72.10;;;;;;5071779;28;46503;-66
2021/12/07 02:46:22;;;;;;;3.30;2.27;;;1.80;72.10;;;;;;5072449;28;46301;-65
2021/12/07 02:48:47;;;;;;;2.97;2.07;;;1.80;72.00;;;;;;5072053;28;46373;-66
2021/12/07 02:51:13;;;;;;;3.20;2.30;;;1.80;72.20;;;;;;5070284;28;46422;-66
2021/12/07 02:53:39;;;;;;;3.95;2.70;;;1.80;72.40;;;;;;5073257;28;46359;-66
2021/12/07 02:56:07;;;;;;;3.97;2.77;;;1.70;72.70;;;;;;5072129;27;47909;-65
2021/12/07 02:58:35;;;;;;;6.80;2.55;;;1.70;72.90;;;;;;5076018;28;46356;-65
2021/12/07 03:01:15;;;;;;;4.50;2.63;;;1.60;72.80;;;;;;5072584;28;46521;-65
2021/12/07 03:04:08;;;;;;;3.53;2.53;;;1.60;72.90;;;;;;5067021;28;46564;-64
2021/12/07 03:06:45;;;;;;;4.78;2.47;;;1.60;72.90;;;;;;5070695;28;46868;-67
2021/12/07 03:26:09;;;;;;;5.85;3.22;;;1.60;73.30;;;;;;5072938;28;46320;-66
2021/12/07 03:28:44;;;;;;;4.43;2.67;;;1.70;73.30;;;;;;5070381;28;46506;-67
2021/12/07 03:31:11;;;;;;;4.93;3.47;;;1.70;73.20;;;;;;5073150;28;46701;-66
2021/12/07 03:33:38;;;;;;;5.10;3.28;;;1.80;73.10;;;;;;5071261;27;46494;-67
2021/12/07 03:36:05;;;;;;;5.20;3.35;;;1.80;73.20;;;;;;5070599;28;46347;-67
2021/12/07 03:38:31;;;;;;;4.93;3.00;;;1.70;73.50;;;;;;5093581;27;48942;-67
2021/12/07 03:40:57;;;;;;;5.03;3.40;;;1.70;74.00;;;;;;5072399;28;46442;-66
2021/12/07 03:43:23;;;;;;;6.10;3.60;;;1.60;74.40;;;;;;5092865;27;45855;-67
2021/12/07 03:45:49;;;;;;;5.27;3.40;;;1.70;74.50;;;;;;5074860;28;46573;-68
2021/12/07 03:48:14;;;;;;;5.20;3.37;;;1.70;74.50;;;;;;5071378;28;47980;-65
2021/12/07 03:50:40;;;;;;;4.50;3.30;;;1.70;74.30;;;;;;5072479;27;45882;-67
2021/12/07 03:53:07;;;;;;;5.07;3.63;;;1.70;74.30;;;;;;5088141;27;46441;-66
2021/12/07 03:55:33;;;;;;;5.68;3.15;;;1.80;74.40;;;;;;5071495;28;46456;-68
2021/12/07 03:58:00;;;;;;;5.15;2.95;;;1.80;74.30;;;;;;5073126;28;46405;-67
2021/12/07 04:00:28;;;;;;;5.45;3.00;;;1.90;74.30;;;;;;5075298;28;46522;-67
2021/12/07 04:02:55;;;;;;;3.38;2.50;;;1.90;74.20;;;;;;5070571;28;46459;-66
2021/12/07 04:05:23;;;;;;;3.10;2.60;;;2.00;74.00;;;;;;5077676;28;46653;-66
2021/12/07 04:07:50;;;;;;;3.00;2.00;;;2.00;74.10;;;;;;5078243;28;46422;-68
2021/12/07 04:10:18;;;;;;;3.45;2.35;;;2.00;74.10;;;;;;5074124;28;46527;-67
2021/12/07 04:12:44;;;;;;;2.55;2.00;;;2.00;74.30;;;;;;5073420;27;46284;-67
2021/12/07 04:15:13;;;;;;;2.38;1.83;;;2.10;74.30;;;;;;5077489;28;46497;-65
2021/12/07 04:17:39;;;;;;;2.85;2.10;;;2.10;74.30;;;;;;5075635;27;46283;-67
2021/12/07 04:20:08;;;;;;;3.22;2.10;;;2.00;74.40;;;;;;5075082;27;46427;-66
2021/12/07 04:22:34;;;;;;;4.97;2.10;;;2.00;74.50;;;;;;5076132;28;46392;-67
2021/12/07 04:25:00;;;;;;;2.65;2.05;;;2.00;74.60;;;;;;5067216;28;46501;-65
2021/12/07 04:27:30;;;;;;;2.70;2.10;;;2.00;74.80;;;;;;5074000;28;46512;-67
2021/12/07 04:29:56;;;;;;;2.88;1.85;;;2.00;74.70;;;;;;5070940;27;46370;-66
2021/12/07 04:32:21;;;;;;;2.40;1.70;;;2.00;74.70;;;;;;5070949;28;46535;-67
2021/12/07 04:34:47;;;;;;;2.97;1.97;;;2.10;74.90;;;;;;5068736;27;46378;-68
2021/12/07 04:37:13;;;;;;;2.07;1.60;;;2.10;74.80;;;;;;5073137;28;46477;-66
2021/12/07 04:39:39;;;;;;;2.40;1.70;;;2.10;74.90;;;;;;5073140;27;45802;-67
2021/12/07 04:42:05;;;;;;;4.80;2.20;;;2.00;75.50;;;;;;5077812;28;46271;-66
2021/12/07 04:44:32;;;;;;;2.78;1.90;;;2.00;75.90;;;;;;5071946;28;46428;-68
2021/12/07 04:57:36;;;;;;;2.25;2.03;;;2.00;75.90;;;;;;5069830;28;45797;-66
2021/12/07 04:58:28;;;;;;;2.35;1.80;;;2.00;76.10;;;;;;5068460;27;46623;-65
2021/12/07 05:00:54;;;;;;;2.60;1.80;;;1.90;76.40;;;;;;5067121;27;46502;-67
2021/12/07 05:03:20;;;;;;;2.10;1.80;;;1.90;76.50;;;;;;5066463;28;46342;-65
2021/12/07 05:05:50;;;;;;;2.22;1.85;;;1.90;76.70;;;;;;5074471;27;45996;-66
2021/12/07 05:08:31;;;;;;;2.13;1.80;;;1.90;76.90;;;;;;5079166;28;47935;-66
2021/12/07 05:24:18;;;;;;;2.20;1.80;;;2.20;76.40;;;;;;5072926;28;46356;-67
2021/12/07 05:34:50;;;;;;;2.58;2.08;;;2.10;76.30;;;;;;5066827;28;46353;-65
2021/12/07 05:40:09;;;;;;;2.00;1.80;;;1.80;77.10;;;;;;5071429;28;45956;-66
2021/12/07 05:42:37;;;;;;;3.50;1.73;;;1.70;77.30;;;;;;5066825;28;46456;-69
2021/12/07 05:45:04;;;;;;;2.42;1.90;;;1.70;77.20;;;;;;5070702;28;46312;-66
2021/12/07 05:47:30;;;;;;;2.25;2.05;;;1.70;77.10;;;;;;5078526;28;46067;-65
2021/12/07 05:49:56;;;;;;;2.13;1.90;;;1.60;77.20;;;;;;5073552;28;48112;-65
2021/12/07 05:52:22;;;;;;;2.80;2.40;;;1.60;77.40;;;;;;5074513;28;46516;-67
2021/12/07 05:54:47;;;;;;;3.08;2.10;;;1.50;77.50;;;;;;5073851;27;46520;-68
2021/12/07 05:57:13;;;;;;;3.40;2.40;;;1.50;77.60;;;;;;5067337;27;46446;-68
2021/12/07 05:59:40;;;;;;;3.60;1.70;;;1.60;77.60;;;;;;5070758;28;48017;-67
2021/12/07 06:02:06;;;;;;;2.42;1.95;;;1.70;77.30;;;;;;5087982;27;46318;-67
2021/12/07 06:04:33;;;;;;;3.83;2.65;;;1.90;76.80;;;;;;5073621;28;46308;-68
2021/12/07 06:06:58;;;;;;;4.28;2.33;;;2.10;76.40;;;;;;5075424;27;46394;-66
2021/12/07 06:09:25;;;;;;;3.07;2.17;;;2.30;75.90;;;;;;5074986;27;47712;-68
2021/12/07 06:11:53;;;;;;;2.75;2.10;;;2.30;75.70;;;;;;5073722;27;46530;-66
2021/12/07 06:14:21;;;;;;;3.17;2.28;;;2.40;75.60;;;;;;5071723;27;46481;-68
2021/12/07 06:16:47;;;;;;;4.90;2.40;;;2.40;75.60;;;;;;5075365;27;46264;-68
2021/12/07 06:19:13;;;;;;;3.50;2.30;;;2.50;75.80;;;;;;5073245;27;47142;-68
2021/12/07 06:21:39;;;;;;;3.10;2.28;;;2.40;75.80;;;;;;5072896;28;45746;-67
2021/12/07 06:24:05;;;;;;;2.60;2.17;;;2.40;76.10;;;;;;5074642;28;46689;-69
2021/12/07 06:26:33;;;;;;;3.75;2.42;;;2.30;76.20;;;;;;5067590;28;47152;-67
2021/12/07 06:29:00;;;;;;;6.80;2.63;;;2.30;76.10;;;;;;5066763;28;48015;-65
2021/12/07 06:31:26;;;;;;;5.03;2.08;;;2.30;76.70;;;;;;5063395;28;46271;-67
2021/12/07 06:33:52;;;;;;;2.10;1.90;;;2.30;76.80;;;;;;5067117;28;46377;-67
2021/12/07 06:36:18;;;;;;;3.13;2.20;;;2.30;76.80;;;;;;5069680;28;46469;-66
2021/12/07 06:38:45;;;;;;;2.80;2.05;;;2.20;76.90;;;;;;5069289;28;47486;-66
2021/12/07 06:41:11;;;;;;;2.60;2.20;;;2.20;77.00;;;;;;5080204;28;46354;-67
2021/12/07 06:43:37;;;;;;;4.68;2.22;;;2.30;75.70;;;;;;5075739;28;46426;-67
2021/12/07 06:46:03;;;;;;;2.75;2.30;;;2.30;76.50;;;;;;5074827;28;46310;-65
2021/12/07 06:48:29;;;;;;;4.00;2.30;;;2.40;76.30;;;;;;5070896;28;47902;-67
2021/12/07 06:50:54;;;;;;;2.90;2.37;;;2.50;76.10;;;;;;5063609;27;46682;-67
2021/12/07 06:53:20;;;;;;;2.43;2.10;;;2.60;75.80;;;;;;5066786;28;46467;-67
2021/12/07 06:55:46;;;;;;;3.22;2.33;;;2.60;75.70;;;;;;5070227;27;46541;-67
2021/12/07 06:58:12;;;;;;;3.63;2.37;;;2.70;75.60;;;;;;5076699;28;47889;-67
2021/12/07 07:00:38;;;;;;;4.53;2.75;;;2.70;75.60;;;;;;5069209;28;46319;-67
2021/12/07 07:03:04;;;;;;;3.38;2.47;;;2.80;75.30;;;;;;5075344;28;45991;-67
2021/12/07 07:05:30;;;;;;;4.22;3.17;;;2.80;75.80;;;;;;5063597;28;46061;-67
2021/12/07 07:07:58;;;;;;;4.00;2.10;;;2.80;75.60;;;;;;5071218;28;47974;-66
2021/12/07 07:10:24;;;;;;;6.57;2.80;;;2.90;76.10;;;;;;5065797;28;46354;-67
2021/12/07 07:12:50;;;;;;;2.77;2.37;;;3.00;76.00;;;;;;5069288;28;46399;-68
2021/12/07 07:15:17;;;;;;;2.73;2.27;;;3.00;75.70;;;;;;5073419;27;46326;-67
2021/12/07 07:17:44;;;;;;;2.72;2.53;;;3.00;75.70;;;;;;5067298;27;47771;-67
2021/12/07 07:20:15;;;;;;;3.80;2.38;;;3.10;75.50;;;;;;5069373;27;46388;-67
2021/12/07 07:22:41;;;;;;;2.78;2.28;;;3.10;75.30;;;;;;5077639;27;46237;-67
2021/12/07 07:25:08;;;;;;;3.03;2.47;;;3.10;75.20;;;;;;5080491;28;45810;-68
2021/12/07 07:27:34;;;;;;;2.75;2.22;;;3.10;75.20;;;;;;5070813;28;47740;-67
2021/12/07 07:30:00;;;;;;;3.80;2.00;;;3.20;75.10;;;;;;5073808;28;46345;-65
2021/12/07 07:32:25;;;;;;;3.40;2.60;;;3.20;75.10;;;;;;5078200;28;46390;-65
2021/12/07 07:34:51;;;;;;;3.47;2.00;;;3.20;75.10;;;;;;5073365;27;46685;-66
2021/12/07 07:37:17;;;;;;;4.22;2.53;;;3.10;75.10;;;;;;5074792;27;48037;-68
2021/12/07 07:39:43;;;;;;;2.93;2.17;;;3.00;75.50;;;;;;5078963;28;46286;-67
2021/12/07 07:42:10;;;;;;;4.23;2.80;;;2.90;75.90;;;;;;5077233;28;46482;-66
2021/12/07 07:44:36;;;;;;;2.95;2.30;;;2.80;76.00;;;;;;5069988;28;46457;-66
2021/12/07 07:47:02;;;;;;;4.35;2.30;;;2.80;76.30;;;;;;5072101;28;47823;-66
2021/12/07 07:49:28;;;;;;;9.43;2.50;;;2.70;76.40;;;;;;5070613;28;46288;-67
2021/12/07 07:51:54;;;;;;;3.20;2.33;;;2.70;76.50;;;;;;5074954;27;46401;-66
2021/12/07 07:54:19;;;;;;;2.67;2.17;;;2.70;76.30;;;;;;5073009;28;46566;-67
2021/12/07 07:56:45;;;;;;;2.70;2.10;;;2.80;76.10;;;;;;5077772;28;49050;-68
2021/12/07 07:59:11;;;;;;;2.60;2.40;;;3.10;75.70;;;;;;5073546;27;45858;-66
2021/12/07 08:01:37;;;;;;;4.00;2.10;;;3.20;75.20;;;;;;5069591;27;46351;-67
2021/12/07 08:04:04;;;;;;;2.43;2.23;;;3.30;74.80;;;;;;5068996;28;46476;-67
2021/12/07 08:06:30;;;;;;;4.05;2.72;;;3.50;74.60;;;;;;5072167;28;48966;-68
2021/12/07 08:08:56;;;;;;;2.03;1.80;;;3.50;74.40;;;;;;5072273;28;46668;-68
2021/12/07 08:11:23;;;;;;;3.53;2.15;;;3.50;74.40;;;;;;5075497;28;46283;-67
2021/12/07 08:13:49;;;;;;;4.85;2.63;;;3.50;74.60;;;;;;5073855;27;46509;-67
2021/12/07 08:16:17;;;;;;;3.13;2.28;;;3.60;74.50;;;;;;5074296;27;47471;-67
2021/12/07 08:18:47;;;;;;;8.77;2.50;;;3.70;74.10;;;;;;5075958;27;46371;-68
2021/12/07 08:21:14;;;;;;;6.32;2.50;;;3.80;74.10;;;;;;5072743;28;46394;-67
2021/12/07 08:23:41;;;;;;;3.10;2.23;;;3.80;74.10;;;;;;5073681;28;46320;-66
2021/12/07 08:26:09;;;;;;;2.45;1.80;;;3.80;74.10;;;;;;5074177;28;47546;-68
2021/12/07 08:28:36;;;;;;;2.33;2.00;;;3.90;73.90;;;;;;5092448;27;46306;-67
2021/12/07 08:31:03;;;;;;;3.00;1.85;;;3.90;73.80;;;;;;5075691;28;46391;-68
2021/12/07 08:33:29;;;;;;;2.93;2.00;;;3.90;74.80;;;;;;5066630;27;46277;-67
2021/12/07 08:35:55;;;;;;;5.68;2.40;;;3.90;73.70;;;;;;5081027;27;46371;-66
2021/12/07 08:38:21;;;;;;;6.20;3.40;;;3.90;73.80;;;;;;5072141;28;46458;-67
2021/12/07 08:40:53;;;;;;;4.07;2.70;;;3.90;73.80;;;;;;5073603;27;46379;-66
2021/12/07 08:43:20;;;;;;;4.80;2.33;;;3.90;74.00;;;;;;5074879;28;46241;-68
2021/12/07 08:45:47;;;;;;;2.80;2.20;;;3.90;74.10;;;;;;5075663;27;48649;-68
2021/12/07 08:48:12;;;;;;;4.65;2.38;;;3.90;73.90;;;;;;5078002;28;46534;-68
2021/12/07 08:50:41;;;;;;;6.40;2.63;;;3.80;74.10;;;;;;5077249;27;46320;-67
2021/12/07 08:53:10;;;;;;;3.97;2.70;;;3.60;74.50;;;;;;5069044;27;46387;-67
2021/12/07 09:01:22;;;;;;;3.55;2.58;;;3.30;75.80;;;;;;5053912;28;46419;-67
2021/12/07 09:03:49;;;;;;;4.93;2.90;;;3.40;75.40;;;;;;5072417;28;46348;-68
2021/12/07 09:06:15;;;;;;;5.72;3.35;;;3.60;75.30;;;;;;5070585;27;46443;-68
2021/12/07 09:08:41;;;;;;;4.35;2.72;;;3.60;75.00;;;;;;5070226;28;46395;-68
2021/12/07 09:11:08;;;;;;;3.17;2.40;;;3.50;75.00;;;;;;5076991;28;46413;-66
2021/12/07 09:13:35;;;;;;;2.90;2.40;;;3.50;75.10;;;;;;5078230;27;46372;-67
2021/12/07 09:16:01;;;;;;;3.55;2.38;;;3.40;75.30;;;;;;5068981;28;47597;-67
2021/12/07 09:18:27;;;;;;;2.92;2.30;;;3.50;75.50;;;;;;5071042;28;46350;-68
2021/12/07 09:20:54;;;;;;;4.20;2.40;;;3.60;75.30;;;;;;5072063;28;46405;-67
2021/12/07 09:23:20;;;;;;;7.07;2.73;;;3.60;75.30;;;;;;5069600;28;46609;-67
2021/12/07 09:25:46;;;;;;;4.10;2.77;;;3.70;75.40;;;;;;5068854;27;48441;-67
2021/12/07 09:28:12;;;;;;;3.95;1.90;;;3.70;75.20;;;;;;5070245;28;46472;-67
2021/12/07 09:30:39;;;;;;;3.03;2.00;;;3.80;75.10;;;;;;5070212;27;46458;-67
2021/12/07 09:33:05;;;;;;;7.77;2.20;;;3.90;74.80;;;;;;5071323;27;46347;-66
2021/12/07 09:35:31;;;;;;;2.50;2.03;;;4.20;74.70;;;;;;5077230;27;47763;-66
2021/12/07 09:37:57;;;;;;;4.95;1.80;;;4.60;73.80;;;;;;5073704;28;46341;-67
2021/12/07 09:40:28;;;;;;;4.20;2.40;;;4.80;73.50;;;;;;5075486;27;46392;-68
2021/12/07 09:42:54;;;;;;;3.23;1.93;;;4.90;73.50;;;;;;5071613;28;46382;-68
2021/12/07 09:45:20;;;;;;;2.97;2.07;;;5.20;72.50;;;;;;5075692;27;47803;-67
2021/12/07 09:47:48;;;;;;;3.20;2.00;;;5.60;71.80;;;;;;5067517;27;46221;-67
2021/12/07 09:50:18;;;;;;;3.33;1.83;;;5.90;71.20;;;;;;5068817;27;46319;-67
2021/12/07 09:52:45;;;;;;;2.30;1.67;;;6.10;70.90;;;;;;5069551;28;46542;-67
2021/12/07 09:55:12;;;;;;;3.20;1.80;;;6.20;70.50;;;;;;5072415;27;47889;-67
2021/12/07 09:57:37;;;;;;;2.77;1.77;;;6.20;70.40;;;;;;5074694;27;46715;-66
2021/12/07 10:00:09;;;;;;;3.03;2.07;;;6.00;70.40;;;;;;5076118;28;46357;-66
2021/12/07 10:02:37;;;;;;;2.40;2.00;;;5.90;70.60;;;;;;5085524;27;46630;-66
2021/12/07 10:05:03;;;;;;;3.10;2.07;;;5.80;70.80;;;;;;5068520;27;48614;-66
2021/12/07 10:07:29;;;;;;;2.20;1.70;;;5.80;70.90;;;;;;5067561;28;46577;-65
2021/12/07 10:09:55;;;;;;;3.80;1.80;;;5.80;70.70;;;;;;5072158;27;46315;-65
2021/12/07 10:12:22;;;;;;;1.87;1.40;;;5.80;70.40;;;;;;5067453;28;46049;-67
2021/12/07 10:14:48;;;;;;;3.53;1.83;;;5.70;70.30;;;;;;5069836;28;46447;-64
2021/12/07 10:17:21;;;;;;;2.43;1.60;;;5.70;70.50;;;;;;5073874;27;46461;-67
2021/12/07 10:19:48;;;;;;;3.47;1.53;;;5.50;70.60;;;;;;5070849;28;46364;-65
2021/12/07 10:22:20;;;;;;;2.00;1.50;;;5.40;70.90;;;;;;5073135;28;46390;-65
2021/12/07 10:24:54;;;;;;;4.77;2.20;;;5.40;70.90;;;;;;5078311;28;46323;-66
2021/12/07 10:27:32;;;;;;;3.27;1.70;;;5.40;70.90;;;;;;5069467;28;46395;-66
2021/12/07 10:29:58;;;;;;;4.33;1.40;;;5.30;71.00;;;;;;5069974;28;46386;-67
2021/12/07 10:32:24;;;;;;;5.90;1.80;;;5.20;71.10;;;;;;5072996;27;46462;-66
2021/12/07 10:34:50;;;;;;;3.03;1.80;;;5.10;71.00;;;;;;5072912;27;46597;-66
2021/12/07 10:37:20;;;;;;;4.23;2.20;;;5.20;71.00;;;;;;5067327;28;45819;-66
2021/12/07 10:39:55;;;;;;;3.30;1.70;;;5.30;70.50;;;;;;5080207;28;46367;-66
2021/12/07 10:42:29;;;;;;;2.03;1.40;;;5.30;70.10;;;;;;5070673;28;46535;-65
2021/12/07 10:45:00;;;;;;;2.13;1.37;;;5.30;69.80;;;;;;5070814;28;48000;-66
2021/12/07 10:47:26;;;;;;;4.23;1.40;;;5.40;69.70;;;;;;5073507;28;46463;-66
2021/12/07 10:49:54;;;;;;;7.10;1.93;;;5.40;69.40;;;;;;5074630;28;46370;-66
2021/12/07 10:52:20;;;;;;;2.60;1.50;;;5.50;69.30;;;;;;5075141;28;46307;-65
2021/12/07 10:54:48;;;;;;;4.30;1.50;;;5.50;68.90;;;;;;5075053;27;47869;-66
2021/12/07 10:57:21;;;;;;;4.73;1.80;;;5.60;68.90;;;;;;5064909;28;46424;-66
2021/12/07 11:00:01;;;;;;;3.60;1.80;;;5.70;68.50;;;;;;5068588;28;46404;-66
2021/12/07 11:02:33;;;;;;;3.47;1.63;;;5.70;68.10;;;;;;5071303;28;46394;-66
2021/12/07 11:04:59;;;;;;;3.53;1.73;;;5.70;69.20;;;;;;5081981;28;46388;-66
2021/12/07 11:07:29;;;;;;;3.63;1.37;;;5.80;67.90;;;;;;5074599;27;46416;-65
2021/12/07 11:10:15;;;;;;;3.10;1.80;;;5.80;67.90;;;;;;5075628;28;46339;-68
2021/12/07 11:15:36;;;;;;;4.50;2.37;;;5.90;67.70;;;;;;5054996;28;46286;-67
2021/12/07 11:18:07;;;;;;;4.23;1.63;;;5.90;67.20;;;;;;5069731;27;45752;-67
2021/12/07 11:20:34;;;;;;;4.50;1.70;;;5.90;67.10;;;;;;5071354;28;46373;-67
2021/12/07 11:23:16;;;;;;;3.70;1.60;;;5.90;67.30;;;;;;5081059;28;46259;-65
2021/12/07 11:31:24;;;;;;;2.23;1.57;;;5.90;66.90;;;;;;5076137;28;46414;-67
2021/12/07 11:33:52;;;;;;;2.80;1.50;;;5.70;66.80;;;;;;5079680;28;46307;-68
2021/12/07 11:36:28;;;;;;;3.07;1.87;;;5.70;66.90;;;;;;5066803;28;47819;-67
2021/12/07 11:38:55;;;;;;;3.53;2.17;;;5.70;66.80;;;;;;5076282;28;46625;-68
2021/12/07 11:41:33;;;;;;;9.13;1.80;;;5.70;66.80;;;;;;5072136;27;46413;-67
2021/12/07 11:44:06;;;;;;;6.00;1.90;;;5.70;66.60;;;;;;5071526;28;46177;-67
2021/12/07 11:46:35;;;;;;;4.40;1.90;;;5.70;66.70;;;;;;5073319;28;46457;-68
2021/12/07 11:49:16;;;;;;;3.30;1.83;;;5.70;66.60;;;;;;5071812;28;46450;-67
2021/12/07 11:51:44;;;;;;;3.60;1.80;;;5.70;66.60;;;;;;5081081;28;46429;-67
2021/12/07 11:54:11;;;;;;;5.33;1.63;;;5.70;66.70;;;;;;5071259;28;46374;-67
2021/12/07 11:56:37;;;;;;;3.83;1.67;;;5.70;66.60;;;;;;5076818;28;48013;-67
2021/12/07 11:59:05;;;;;;;4.80;1.77;;;5.80;66.60;;;;;;5075360;28;46386;-67
2021/12/07 12:01:31;;;;;;;2.87;1.57;;;5.90;66.60;;;;;;5078063;27;46521;-66
2021/12/07 12:03:57;;;;;;;2.50;1.50;;;5.90;66.50;;;;;;5074245;27;46222;-67
2021/12/07 12:06:23;;;;;;;5.90;2.10;;;5.90;66.40;;;;;;5086813;27;48028;-67
2021/12/07 12:08:50;;;;;;;8.43;1.83;;;5.90;66.30;;;;;;5071618;28;46477;-66
2021/12/07 12:11:37;;;;;;;3.57;1.70;;;5.70;66.60;;;;;;5078237;27;45766;-67
2021/12/07 12:14:27;;;;;;;3.03;1.43;;;5.50;67.00;;;;;;5069684;28;46442;-67
2021/12/07 12:17:31;;;;;;;2.67;1.73;;;5.40;67.30;;;;;;5069168;27;46395;-65
2021/12/07 12:20:03;;;;;;;2.77;1.77;;;5.10;67.70;;;;;;5043572;28;46257;-67
2021/12/07 12:22:59;;;;;;;2.83;1.77;;;4.90;68.20;;;;;;5079350;28;45821;-66
2021/12/07 12:25:27;;;;;;;4.60;1.93;;;4.80;68.20;;;;;;5078469;28;46420;-67
2021/12/07 12:27:56;;;;;;;7.43;2.07;;;4.60;68.50;;;;;;5077128;27;46474;-67
2021/12/07 12:30:26;;;;;;;4.00;2.03;;;4.60;68.40;;;;;;5088037;27;46429;-68
2021/12/07 12:33:02;;;;;;;5.30;2.13;;;4.70;68.40;;;;;;5071899;28;46398;-67
2021/12/07 12:35:38;;;;;;;2.40;1.60;;;4.60;69.40;;;;;;5072394;28;46433;-67
2021/12/07 12:38:18;;;;;;;5.47;2.10;;;4.60;68.20;;;;;;5074315;28;46460;-67
2021/12/07 12:41:13;;;;;;;6.13;1.90;;;4.60;68.20;;;;;;5076363;28;46475;-67
2021/12/07 12:43:55;;;;;;;7.43;2.80;;;4.70;68.10;;;;;;5073998;28;46502;-67
2021/12/07 12:46:27;;;;;;;4.13;2.10;;;4.60;67.90;;;;;;5071927;27;46351;-67
2021/12/07 12:48:58;;;;;;;4.33;2.07;;;4.60;67.90;;;;;;5075842;27;46578;-67
2021/12/07 12:51:28;;;;;;;5.60;1.77;;;4.70;69.10;;;;;;5072870;28;46409;-66
2021/12/07 12:53:54;;;;;;;4.83;1.90;;;4.70;68.00;;;;;;5080176;28;46335;-66
2021/12/07 12:56:25;;;;;;;3.57;1.73;;;4.70;67.90;;;;;;5088121;27;46272;-67
2021/12/07 12:58:54;;;;;;;4.60;2.00;;;4.70;67.80;;;;;;5080082;27;49232;-68
2021/12/07 13:01:29;;;;;;;2.33;1.60;;;4.70;67.80;;;;;;5070240;28;46213;-68
2021/12/07 13:03:57;;;;;;;6.40;1.60;;;4.80;67.80;;;;;;5075242;27;46311;-65
2021/12/07 13:06:38;;;;;;;6.37;2.00;;;4.80;67.60;;;;;;5070287;28;46466;-67
2021/12/07 13:09:19;;;;;;;4.05;1.98;;;4.90;67.40;;;;;;5073665;28;48692;-67
2021/12/07 13:11:59;;;;;;;1.87;1.40;;;4.90;67.10;;;;;;5072840;28;46328;-68
2021/12/07 13:14:25;;;;;;;5.80;2.20;;;4.80;67.10;;;;;;5071712;28;46506;-68
2021/12/07 13:17:08;;;;;;;2.60;1.70;;;4.80;68.60;;;;;;5070319;28;46632;-68
2021/12/07 13:20:14;;;;;;;3.90;1.60;;;4.70;67.30;;;;;;5073400;28;47755;-68
2021/12/07 13:22:46;;;;;;;2.50;1.70;;;4.70;67.30;;;;;;5081181;27;46421;-66
2021/12/07 13:25:17;;;;;;;5.33;1.93;;;4.60;67.60;;;;;;5069154;28;46386;-68
2021/12/07 13:28:12;;;;;;;4.83;2.13;;;4.50;67.60;;;;;;5069343;28;45853;-67
2021/12/07 13:30:57;;;;;;;3.40;2.30;;;4.50;67.50;;;;;;5070034;28;48563;-67
2021/12/07 13:33:30;;;;;;;4.53;2.10;;;4.50;67.60;;;;;;5071301;27;46516;-66
2021/12/07 13:35:56;;;;;;;4.53;1.47;;;4.50;67.60;;;;;;5071533;27;46653;-67
2021/12/07 13:38:29;;;;;;;3.83;1.70;;;4.50;67.60;;;;;;5068721;28;46394;-67
2021/12/07 13:41:14;;;;;;;6.60;2.00;;;4.50;67.60;;;;;;5077135;28;48064;-68
2021/12/07 13:43:44;;;;;;;4.10;1.87;;;4.50;66.70;;;;;;5067515;28;46341;-66
2021/12/07 13:46:12;;;;;;;9.93;2.50;;;4.40;66.90;;;;;;5072536;28;46424;-68
2021/12/07 13:48:39;;;;;;;4.57;1.60;;;4.40;68.20;;;;;;5073177;27;46700;-65
2021/12/07 13:51:06;;;;;;;5.73;1.60;;;4.40;67.00;;;;;;5074102;27;47199;-67
2021/12/07 13:53:31;;;;;;;15.97;3.10;;;4.40;67.00;;;;;;5071061;28;46296;-67
2021/12/07 13:55:57;;;;;;;5.20;1.60;;;4.40;66.90;;;;;;5069532;28;46335;-67
2021/12/07 13:58:25;;;;;;;3.83;1.73;;;4.30;66.90;;;;;;5073874;28;46597;-66
2021/12/07 14:00:51;;;;;;;6.30;2.67;;;4.30;67.00;;;;;;5070938;27;48091;-67
2021/12/07 14:03:19;;;;;;;6.87;3.60;;;4.30;67.00;;;;;;5078280;28;46378;-67
2021/12/07 14:05:46;;;;;;;3.17;1.70;;;4.30;66.90;;;;;;5074488;28;46386;-66
2021/12/07 14:08:14;;;;;;;4.60;1.40;;;4.30;66.80;;;;;;5072622;27;46427;-67
2021/12/07 14:10:46;;;;;;;3.73;1.57;;;4.30;66.90;;;;;;5069001;27;48865;-66
2021/12/07 14:13:14;;;;;;;3.97;1.23;;;4.10;66.80;;;;;;5078144;28;46511;-66
2021/12/07 14:15:42;;;;;;;6.00;1.53;;;4.10;66.90;;;;;;5072640;28;46489;-67
2021/12/07 14:18:15;;;;;;;7.90;4.37;;;4.00;66.80;;;;;;5069432;28;46208;-66
2021/12/07 14:20:50;;;;;;;6.83;2.17;;;3.90;66.90;;;;;;5069837;27;47843;-67
2021/12/07 14:23:37;;;;;;;9.00;3.80;;;3.80;66.80;;;;;;5070495;28;46264;-67
2021/12/07 14:26:36;;;;;;;17.80;7.80;;;3.70;66.80;;;;;;5079058;28;46524;-66
2021/12/07 14:29:09;;;;;;;7.10;4.03;;;3.70;66.90;;;;;;5058174;27;46554;-68
2021/12/07 14:31:42;;;;;;;21.53;8.30;;;3.70;66.60;;;;;;5079543;27;47941;-67
2021/12/07 14:34:09;;;;;;;12.68;6.20;;;3.70;66.60;;;;;;5070928;28;46435;-66
2021/12/07 14:36:43;;;;;;;14.50;8.37;;;3.70;66.60;;;;;;5069537;27;46426;-66
2021/12/07 14:39:16;;;;;;;9.13;5.03;;;3.70;66.50;;;;;;5080845;28;46552;-67
2021/12/07 14:41:48;;;;;;;5.40;3.50;;;3.60;66.70;;;;;;5079188;28;47295;-65
2021/12/07 14:44:20;;;;;;;4.40;2.75;;;3.60;66.70;;;;;;5077258;28;46443;-65
2021/12/07 14:46:47;;;;;;;7.03;4.43;;;3.50;66.70;;;;;;5080163;28;46373;-67